sensor_id;sensor_type;location;lat;lon;timestamp;pressure;altitude;pressure_sealevel;temperature;humidity
32761;BME280;19126;47.472;7.850;2024-03-08T00:00:10;74891.81;;;-146.25;61.44
32761;BME280;19126;47.472;7.850;2024-03-08T00:02:40;74875.75;;;-146.25;60.92
32761;BME280;19126;47.472;7.850;2024-03-08T00:05:09;74875.75;;;-146.25;60.94
32761;BME280;19126;47.472;7.850;2024-03-08T00:07:36;74873.75;;;-146.25;61.48
32761;BME280;19126;47.472;7.850;2024-03-08T00:10:04;74873.75;;;-146.25;61.61
32761;BME280;19126;47.472;7.850;2024-03-08T00:12:31;74881.78;;;-146.25;61.93
32761;BME280;19126;47.472;7.850;2024-03-08T00:15:05;74881.78;;;-146.25;62.10
32761;BME280;19126;47.472;7.850;2024-03-08T00:17:34;74871.75;;;-146.25;61.37
32761;BME280;19126;47.472;7.850;2024-03-08T00:20:04;74843.69;;;-146.25;60.30
32761;BME280;19126;47.472;7.850;2024-03-08T00:22:34;74839.66;;;-146.25;59.66
32761;BME280;19126;47.472;7.850;2024-03-08T00:25:01;74839.66;;;-146.25;59.65
32761;BME280;19126;47.472;7.850;2024-03-08T00:27:29;74833.66;;;-146.25;59.79
32761;BME280;19126;47.472;7.850;2024-03-08T00:29:57;74835.66;;;-146.25;60.21
32761;BME280;19126;47.472;7.850;2024-03-08T00:32:24;74847.69;;;-146.25;60.08
32761;BME280;19126;47.472;7.850;2024-03-08T00:34:53;74855.72;;;-146.25;60.23
32761;BME280;19126;47.472;7.850;2024-03-08T00:37:21;74859.72;;;-146.25;60.43
32761;BME280;19126;47.472;7.850;2024-03-08T00:39:49;74863.72;;;-146.25;60.21
32761;BME280;19126;47.472;7.850;2024-03-08T00:42:16;74863.72;;;-146.25;60.58
32761;BME280;19126;47.472;7.850;2024-03-08T00:44:44;74867.75;;;-146.25;60.40
32761;BME280;19126;47.472;7.850;2024-03-08T00:47:11;74863.72;;;-146.25;59.89
32761;BME280;19126;47.472;7.850;2024-03-08T00:49:40;74859.72;;;-146.25;59.84
32761;BME280;19126;47.472;7.850;2024-03-08T00:52:08;74861.72;;;-146.25;59.44
32761;BME280;19126;47.472;7.850;2024-03-08T00:54:36;74855.72;;;-146.25;59.14
32761;BME280;19126;47.472;7.850;2024-03-08T00:57:04;74845.69;;;-146.25;58.94
32761;BME280;19126;47.472;7.850;2024-03-08T00:59:32;74851.69;;;-146.25;58.36
32761;BME280;19126;47.472;7.850;2024-03-08T01:01:59;74839.66;;;-146.25;57.59
32761;BME280;19126;47.472;7.850;2024-03-08T01:04:27;74831.66;;;-146.25;56.90
32761;BME280;19126;47.472;7.850;2024-03-08T01:06:55;74833.66;;;-146.25;56.80
32761;BME280;19126;47.472;7.850;2024-03-08T01:09:22;74817.63;;;-146.25;55.79
32761;BME280;19126;47.472;7.850;2024-03-08T01:11:50;74815.63;;;-146.25;55.60
32761;BME280;19126;47.472;7.850;2024-03-08T01:14:20;74811.59;;;-146.25;55.27
32761;BME280;19126;47.472;7.850;2024-03-08T01:16:48;74807.59;;;-146.25;54.85
32761;BME280;19126;47.472;7.850;2024-03-08T01:19:15;74791.56;;;-146.25;54.52
32761;BME280;19126;47.472;7.850;2024-03-08T01:21:43;74793.56;;;-146.25;53.86
32761;BME280;19126;47.472;7.850;2024-03-08T01:24:11;74789.56;;;-146.25;53.92
32761;BME280;19126;47.472;7.850;2024-03-08T01:26:38;74781.53;;;-146.25;53.82
32761;BME280;19126;47.472;7.850;2024-03-08T01:29:06;74777.53;;;-146.25;53.35
32761;BME280;19126;47.472;7.850;2024-03-08T01:31:34;74775.53;;;-146.25;53.50
32761;BME280;19126;47.472;7.850;2024-03-08T01:34:02;74773.50;;;-146.25;53.18
32761;BME280;19126;47.472;7.850;2024-03-08T01:36:29;74769.50;;;-146.25;53.18
32761;BME280;19126;47.472;7.850;2024-03-08T01:38:56;74765.50;;;-146.25;52.55
32761;BME280;19126;47.472;7.850;2024-03-08T01:41:24;74761.47;;;-146.25;53.15
32761;BME280;19126;47.472;7.850;2024-03-08T01:43:51;74761.47;;;-146.25;52.97
32761;BME280;19126;47.472;7.850;2024-03-08T01:46:22;74751.47;;;-146.25;52.78
32761;BME280;19126;47.472;7.850;2024-03-08T01:48:49;74745.44;;;-146.25;52.44
32761;BME280;19126;47.472;7.850;2024-03-08T01:51:17;74717.38;;;-146.25;52.06
32761;BME280;19126;47.472;7.850;2024-03-08T01:53:47;74707.34;;;-146.25;53.21
32761;BME280;19126;47.472;7.850;2024-03-08T01:56:15;74697.34;;;-146.25;53.87
32761;BME280;19126;47.472;7.850;2024-03-08T01:58:44;74681.28;;;-146.25;54.90
32761;BME280;19126;47.472;7.850;2024-03-08T02:01:13;74655.22;;;-146.25;56.01
32761;BME280;19126;47.472;7.850;2024-03-08T02:03:43;74659.25;;;-146.25;58.01
32761;BME280;19126;47.472;7.850;2024-03-08T02:06:12;74651.22;;;-146.25;59.47
32761;BME280;19126;47.472;7.850;2024-03-08T02:08:42;74635.19;;;-146.25;60.72
32761;BME280;19126;47.472;7.850;2024-03-08T02:11:10;74623.16;;;-146.25;63.18
32761;BME280;19126;47.472;7.850;2024-03-08T02:13:38;74627.16;;;-146.25;65.33
32761;BME280;19126;47.472;7.850;2024-03-08T02:16:05;74623.16;;;-146.25;68.04
32761;BME280;19126;47.472;7.850;2024-03-08T02:18:34;74619.16;;;-146.25;70.28
32761;BME280;19126;47.472;7.850;2024-03-08T02:21:04;74621.16;;;-146.25;72.21
32761;BME280;19126;47.472;7.850;2024-03-08T02:23:32;74623.16;;;-146.25;73.31
32761;BME280;19126;47.472;7.850;2024-03-08T02:26:00;74615.13;;;-146.25;74.27
32761;BME280;19126;47.472;7.850;2024-03-08T02:28:27;74603.09;;;-146.25;75.67
32761;BME280;19126;47.472;7.850;2024-03-08T02:30:55;74587.06;;;-146.25;77.69
32761;BME280;19126;47.472;7.850;2024-03-08T02:33:23;74589.06;;;-146.25;79.51
32761;BME280;19126;47.472;7.850;2024-03-08T02:35:51;74583.06;;;-146.25;80.06
32761;BME280;19126;47.472;7.850;2024-03-08T02:38:22;74581.06;;;-146.25;81.08
32761;BME280;19126;47.472;7.850;2024-03-08T02:40:51;74553.00;;;-146.25;81.91
32761;BME280;19126;47.472;7.850;2024-03-08T02:43:20;74571.03;;;-146.25;82.69
32761;BME280;19126;47.472;7.850;2024-03-08T02:45:48;74585.06;;;-146.25;83.21
32761;BME280;19126;47.472;7.850;2024-03-08T02:48:16;74577.03;;;-146.25;82.81
32761;BME280;19126;47.472;7.850;2024-03-08T02:50:43;74555.00;;;-146.25;83.39
32761;BME280;19126;47.472;7.850;2024-03-08T02:53:11;74573.03;;;-146.25;84.95
32761;BME280;19126;47.472;7.850;2024-03-08T02:55:40;74569.03;;;-146.25;85.27
32761;BME280;19126;47.472;7.850;2024-03-08T02:58:08;74571.03;;;-146.25;84.75
32761;BME280;19126;47.472;7.850;2024-03-08T03:00:36;74575.03;;;-146.25;85.00
32761;BME280;19126;47.472;7.850;2024-03-08T03:03:05;74569.03;;;-146.25;84.88
32761;BME280;19126;47.472;7.850;2024-03-08T03:05:32;74575.03;;;-146.25;84.94
32761;BME280;19126;47.472;7.850;2024-03-08T03:08:00;74563.00;;;-146.25;85.00
32761;BME280;19126;47.472;7.850;2024-03-08T03:10:27;74550.97;;;-146.25;85.53
32761;BME280;19126;47.472;7.850;2024-03-08T03:12:56;74548.97;;;-146.25;86.17
32761;BME280;19126;47.472;7.850;2024-03-08T03:15:23;74555.00;;;-146.25;87.04
32761;BME280;19126;47.472;7.850;2024-03-08T03:17:51;74555.00;;;-146.25;86.83
32761;BME280;19126;47.472;7.850;2024-03-08T03:20:18;74557.00;;;-146.25;86.42
32761;BME280;19126;47.472;7.850;2024-03-08T03:22:52;74542.97;;;-146.25;86.71
32761;BME280;19126;47.472;7.850;2024-03-08T03:25:20;74555.00;;;-146.25;87.40
32761;BME280;19126;47.472;7.850;2024-03-08T03:27:52;74559.00;;;-146.25;86.46
32761;BME280;19126;47.472;7.850;2024-03-08T03:30:23;74563.00;;;-146.25;86.72
32761;BME280;19126;47.472;7.850;2024-03-08T03:32:53;74569.03;;;-146.25;85.79
32761;BME280;19126;47.472;7.850;2024-03-08T03:35:22;74548.97;;;-146.25;86.28
32761;BME280;19126;47.472;7.850;2024-03-08T03:37:50;74550.97;;;-146.25;86.13
32761;BME280;19126;47.472;7.850;2024-03-08T03:40:27;74550.97;;;-146.25;86.46
32761;BME280;19126;47.472;7.850;2024-03-08T03:42:55;74553.00;;;-146.25;86.85
32761;BME280;19126;47.472;7.850;2024-03-08T03:45:24;74544.97;;;-146.25;87.18
32761;BME280;19126;47.472;7.850;2024-03-08T03:47:51;74540.97;;;-146.25;87.98
32761;BME280;19126;47.472;7.850;2024-03-08T03:50:19;74553.00;;;-146.25;87.94
32761;BME280;19126;47.472;7.850;2024-03-08T03:52:46;74555.00;;;-146.25;88.48
32761;BME280;19126;47.472;7.850;2024-03-08T03:55:14;74548.97;;;-146.25;88.36
32761;BME280;19126;47.472;7.850;2024-03-08T03:57:41;74544.97;;;-146.25;87.69
32761;BME280;19126;47.472;7.850;2024-03-08T04:00:10;74548.97;;;-146.25;87.95
32761;BME280;19126;47.472;7.850;2024-03-08T04:02:39;74550.97;;;-146.25;87.66
32761;BME280;19126;47.472;7.850;2024-03-08T04:05:08;74555.00;;;-146.25;88.18
32761;BME280;19126;47.472;7.850;2024-03-08T04:07:36;74555.00;;;-146.25;87.83
32761;BME280;19126;47.472;7.850;2024-03-08T04:10:06;74569.03;;;-146.25;87.47
32761;BME280;19126;47.472;7.850;2024-03-08T04:12:33;74563.00;;;-146.25;86.67
32761;BME280;19126;47.472;7.850;2024-03-08T04:15:01;74550.97;;;-146.25;86.96
32761;BME280;19126;47.472;7.850;2024-03-08T04:17:29;74555.00;;;-146.25;87.57
32761;BME280;19126;47.472;7.850;2024-03-08T04:19:58;74550.97;;;-146.25;87.71
32761;BME280;19126;47.472;7.850;2024-03-08T04:22:25;74540.97;;;-146.25;87.75
32761;BME280;19126;47.472;7.850;2024-03-08T04:24:54;74550.97;;;-146.25;88.12
32761;BME280;19126;47.472;7.850;2024-03-08T04:27:21;74563.00;;;-146.25;87.31
32761;BME280;19126;47.472;7.850;2024-03-08T04:29:48;74555.00;;;-146.25;87.28
32761;BME280;19126;47.472;7.850;2024-03-08T04:32:16;74553.00;;;-146.25;87.54
32761;BME280;19126;47.472;7.850;2024-03-08T04:34:43;74553.00;;;-146.25;87.38
32761;BME280;19126;47.472;7.850;2024-03-08T04:37:12;74559.00;;;-146.25;87.04
32761;BME280;19126;47.472;7.850;2024-03-08T04:39:39;74561.00;;;-146.25;86.73
32761;BME280;19126;47.472;7.850;2024-03-08T04:42:07;74569.03;;;-146.25;86.67
32761;BME280;19126;47.472;7.850;2024-03-08T04:44:37;74559.00;;;-146.25;86.91
32761;BME280;19126;47.472;7.850;2024-03-08T04:47:05;74567.03;;;-146.25;85.83
32761;BME280;19126;47.472;7.850;2024-03-08T04:49:32;74565.00;;;-146.25;85.72
32761;BME280;19126;47.472;7.850;2024-03-08T04:52:01;74577.03;;;-146.25;85.60
32761;BME280;19126;47.472;7.850;2024-03-08T04:54:31;74569.03;;;-146.25;85.82
32761;BME280;19126;47.472;7.850;2024-03-08T04:56:58;74577.03;;;-146.25;85.08
32761;BME280;19126;47.472;7.850;2024-03-08T04:59:26;74561.00;;;-146.25;84.98
32761;BME280;19126;47.472;7.850;2024-03-08T05:01:55;74565.00;;;-146.25;85.26
32761;BME280;19126;47.472;7.850;2024-03-08T05:04:23;74557.00;;;-146.25;85.75
32761;BME280;19126;47.472;7.850;2024-03-08T05:06:50;74557.00;;;-146.25;86.00
32761;BME280;19126;47.472;7.850;2024-03-08T05:09:17;74550.97;;;-146.25;85.63
32761;BME280;19126;47.472;7.850;2024-03-08T05:11:47;74553.00;;;-146.25;86.01
32761;BME280;19126;47.472;7.850;2024-03-08T05:14:15;74555.00;;;-146.25;85.57
32761;BME280;19126;47.472;7.850;2024-03-08T05:16:46;74548.97;;;-146.25;86.38
32761;BME280;19126;47.472;7.850;2024-03-08T05:19:14;74557.00;;;-146.25;86.50
32761;BME280;19126;47.472;7.850;2024-03-08T05:21:43;74555.00;;;-146.25;85.96
32761;BME280;19126;47.472;7.850;2024-03-08T05:24:11;74567.03;;;-146.25;85.98
32761;BME280;19126;47.472;7.850;2024-03-08T05:26:39;74563.00;;;-146.25;85.97
32761;BME280;19126;47.472;7.850;2024-03-08T05:29:08;74563.00;;;-146.25;85.93
32761;BME280;19126;47.472;7.850;2024-03-08T05:31:45;74550.97;;;-146.25;85.65
32761;BME280;19126;47.472;7.850;2024-03-08T05:34:12;74553.00;;;-146.25;85.93
32761;BME280;19126;47.472;7.850;2024-03-08T05:36:40;74563.00;;;-146.25;86.31
32761;BME280;19126;47.472;7.850;2024-03-08T05:39:10;74555.00;;;-146.25;86.40
32761;BME280;19126;47.472;7.850;2024-03-08T05:41:38;74567.03;;;-146.25;86.42
32761;BME280;19126;47.472;7.850;2024-03-08T05:44:07;74548.97;;;-146.25;86.79
32761;BME280;19126;47.472;7.850;2024-03-08T05:46:34;74555.00;;;-146.25;87.33
32761;BME280;19126;47.472;7.850;2024-03-08T05:49:02;74559.00;;;-146.25;87.22
32761;BME280;19126;47.472;7.850;2024-03-08T05:51:31;74550.97;;;-146.25;86.83
32761;BME280;19126;47.472;7.850;2024-03-08T05:54:00;74561.00;;;-146.25;86.87
32761;BME280;19126;47.472;7.850;2024-03-08T05:56:28;74559.00;;;-146.25;87.38
32761;BME280;19126;47.472;7.850;2024-03-08T05:58:56;74550.97;;;-146.25;87.22
32761;BME280;19126;47.472;7.850;2024-03-08T06:01:26;74567.03;;;-146.25;87.22
32761;BME280;19126;47.472;7.850;2024-03-08T06:03:53;74561.00;;;-146.25;87.43
32761;BME280;19126;47.472;7.850;2024-03-08T06:06:21;74559.00;;;-146.25;87.21
32761;BME280;19126;47.472;7.850;2024-03-08T06:08:49;74559.00;;;-146.25;87.12
32761;BME280;19126;47.472;7.850;2024-03-08T06:11:16;74546.97;;;-146.25;87.33
32761;BME280;19126;47.472;7.850;2024-03-08T06:13:44;74571.03;;;-146.25;87.41
32761;BME280;19126;47.472;7.850;2024-03-08T06:16:12;74567.03;;;-146.25;87.38
32761;BME280;19126;47.472;7.850;2024-03-08T06:18:40;74561.00;;;-146.25;87.21
32761;BME280;19126;47.472;7.850;2024-03-08T06:21:08;74555.00;;;-146.25;87.77
32761;BME280;19126;47.472;7.850;2024-03-08T06:23:37;74555.00;;;-146.25;87.95
32761;BME280;19126;47.472;7.850;2024-03-08T06:26:05;74557.00;;;-146.25;87.38
32761;BME280;19126;47.472;7.850;2024-03-08T06:28:32;74571.03;;;-146.25;87.57
32761;BME280;19126;47.472;7.850;2024-03-08T06:31:00;74555.00;;;-146.25;87.28
32761;BME280;19126;47.472;7.850;2024-03-08T06:33:28;74569.03;;;-146.25;87.76
32761;BME280;19126;47.472;7.850;2024-03-08T06:35:58;74575.03;;;-146.25;87.21
32761;BME280;19126;47.472;7.850;2024-03-08T06:38:25;74573.03;;;-146.25;86.99
32761;BME280;19126;47.472;7.850;2024-03-08T06:40:57;74569.03;;;-146.25;87.51
32761;BME280;19126;47.472;7.850;2024-03-08T06:43:24;74571.03;;;-146.25;87.19
32761;BME280;19126;47.472;7.850;2024-03-08T06:45:58;74573.03;;;-146.25;87.58
32761;BME280;19126;47.472;7.850;2024-03-08T06:48:25;74557.00;;;-146.25;87.27
32761;BME280;19126;47.472;7.850;2024-03-08T06:50:52;74567.03;;;-146.25;87.28
32761;BME280;19126;47.472;7.850;2024-03-08T06:53:21;74565.00;;;-146.25;87.38
32761;BME280;19126;47.472;7.850;2024-03-08T06:55:48;74557.00;;;-146.25;87.58
32761;BME280;19126;47.472;7.850;2024-03-08T06:58:16;74548.97;;;-146.25;87.76
32761;BME280;19126;47.472;7.850;2024-03-08T07:00:43;74557.00;;;-146.25;87.57
32761;BME280;19126;47.472;7.850;2024-03-08T07:03:10;74555.00;;;-146.25;87.60
32761;BME280;19126;47.472;7.850;2024-03-08T07:05:43;74538.94;;;-146.25;87.52
32761;BME280;19126;47.472;7.850;2024-03-08T07:08:10;74553.00;;;-146.25;87.48
32761;BME280;19126;47.472;7.850;2024-03-08T07:10:40;74553.00;;;-146.25;87.54
32761;BME280;19126;47.472;7.850;2024-03-08T07:13:07;74557.00;;;-146.25;87.30
32761;BME280;19126;47.472;7.850;2024-03-08T07:15:35;74546.97;;;-146.25;86.97
32761;BME280;19126;47.472;7.850;2024-03-08T07:18:03;74542.97;;;-146.25;86.45
32761;BME280;19126;47.472;7.850;2024-03-08T07:20:30;74534.94;;;-146.25;86.56
32761;BME280;19126;47.472;7.850;2024-03-08T07:22:57;74532.94;;;-146.25;86.35
32761;BME280;19126;47.472;7.850;2024-03-08T07:25:25;74518.91;;;-146.25;86.95
32761;BME280;19126;47.472;7.850;2024-03-08T07:27:56;74522.91;;;-146.25;86.96
32761;BME280;19126;47.472;7.850;2024-03-08T07:30:25;74522.91;;;-146.25;87.14
32761;BME280;19126;47.472;7.850;2024-03-08T07:33:10;74512.91;;;-146.25;87.63
32761;BME280;19126;47.472;7.850;2024-03-08T07:35:38;74516.91;;;-146.25;87.23
32761;BME280;19126;47.472;7.850;2024-03-08T07:38:06;74522.91;;;-146.25;87.69
32761;BME280;19126;47.472;7.850;2024-03-08T07:40:36;74526.94;;;-146.25;88.03
32761;BME280;19126;47.472;7.850;2024-03-08T07:43:06;74524.91;;;-146.25;88.48
32761;BME280;19126;47.472;7.850;2024-03-08T07:45:33;74522.91;;;-146.25;88.51
32761;BME280;19126;47.472;7.850;2024-03-08T07:48:01;74526.94;;;-146.25;87.74
32761;BME280;19126;47.472;7.850;2024-03-08T07:50:29;74518.91;;;-146.25;88.09
32761;BME280;19126;47.472;7.850;2024-03-08T07:52:56;74524.91;;;-146.25;88.46
32761;BME280;19126;47.472;7.850;2024-03-08T07:55:23;74526.94;;;-146.25;88.38
32761;BME280;19126;47.472;7.850;2024-03-08T07:57:51;74512.91;;;-146.25;88.29
32761;BME280;19126;47.472;7.850;2024-03-08T08:00:19;74508.88;;;-146.25;88.25
32761;BME280;19126;47.472;7.850;2024-03-08T08:02:47;74508.88;;;-146.25;87.98
32761;BME280;19126;47.472;7.850;2024-03-08T08:05:15;74506.88;;;-146.25;88.46
32761;BME280;19126;47.472;7.850;2024-03-08T08:07:45;74512.91;;;-146.25;88.48
32761;BME280;19126;47.472;7.850;2024-03-08T08:10:12;74496.84;;;-146.25;88.98
32761;BME280;19126;47.472;7.850;2024-03-08T08:12:44;74478.81;;;-146.25;88.33
32761;BME280;19126;47.472;7.850;2024-03-08T08:15:13;74470.78;;;-146.25;88.24
32761;BME280;19126;47.472;7.850;2024-03-08T08:17:42;74470.78;;;-146.25;88.33
32761;BME280;19126;47.472;7.850;2024-03-08T08:20:10;74470.78;;;-146.25;88.97
32761;BME280;19126;47.472;7.850;2024-03-08T08:22:39;74474.81;;;-146.25;88.75
32761;BME280;19126;47.472;7.850;2024-03-08T08:25:07;74466.78;;;-146.25;89.15
32761;BME280;19126;47.472;7.850;2024-03-08T08:27:34;74456.75;;;-146.25;88.50
32761;BME280;19126;47.472;7.850;2024-03-08T08:30:05;74452.75;;;-146.25;89.33
32761;BME280;19126;47.472;7.850;2024-03-08T08:32:34;74444.72;;;-146.25;89.28
32761;BME280;19126;47.472;7.850;2024-03-08T08:35:05;74444.72;;;-146.25;88.86
32761;BME280;19126;47.472;7.850;2024-03-08T08:37:33;74448.75;;;-146.25;88.63
32761;BME280;19126;47.472;7.850;2024-03-08T08:40:01;74438.72;;;-146.25;88.95
32761;BME280;19126;47.472;7.850;2024-03-08T08:42:31;74434.72;;;-146.25;88.64
32761;BME280;19126;47.472;7.850;2024-03-08T08:44:59;74434.72;;;-146.25;88.76
32761;BME280;19126;47.472;7.850;2024-03-08T08:47:27;74426.69;;;-146.25;88.86
32761;BME280;19126;47.472;7.850;2024-03-08T08:49:54;74434.72;;;-146.25;88.78
32761;BME280;19126;47.472;7.850;2024-03-08T08:52:23;74428.69;;;-146.25;88.96
32761;BME280;19126;47.472;7.850;2024-03-08T08:54:50;74416.66;;;-146.25;88.65
32761;BME280;19126;47.472;7.850;2024-03-08T08:57:17;74424.69;;;-146.25;88.41
32761;BME280;19126;47.472;7.850;2024-03-08T08:59:45;74416.66;;;-146.25;88.60
32761;BME280;19126;47.472;7.850;2024-03-08T09:02:12;74410.66;;;-146.25;88.67
32761;BME280;19126;47.472;7.850;2024-03-08T09:04:42;74414.66;;;-146.25;88.30
32761;BME280;19126;47.472;7.850;2024-03-08T09:07:13;74414.66;;;-146.25;87.79
32761;BME280;19126;47.472;7.850;2024-03-08T09:09:43;74420.69;;;-146.25;87.97
32761;BME280;19126;47.472;7.850;2024-03-08T09:12:11;74406.66;;;-146.25;87.34
32761;BME280;19126;47.472;7.850;2024-03-08T09:14:39;74394.63;;;-146.25;87.67
32761;BME280;19126;47.472;7.850;2024-03-08T09:17:07;74372.56;;;-146.25;87.66
32761;BME280;19126;47.472;7.850;2024-03-08T09:19:34;74366.56;;;-146.25;88.00
32761;BME280;19126;47.472;7.850;2024-03-08T09:22:02;74364.56;;;-146.25;87.69
32761;BME280;19126;47.472;7.850;2024-03-08T09:24:30;74350.53;;;-146.25;87.62
32761;BME280;19126;47.472;7.850;2024-03-08T09:26:59;74348.50;;;-146.25;87.34
32761;BME280;19126;47.472;7.850;2024-03-08T09:29:26;74326.47;;;-146.25;86.95
32761;BME280;19126;47.472;7.850;2024-03-08T09:31:54;74326.47;;;-146.25;86.11
32761;BME280;19126;47.472;7.850;2024-03-08T09:34:21;74322.44;;;-146.25;86.51
32761;BME280;19126;47.472;7.850;2024-03-08T09:36:49;74310.44;;;-146.25;86.47
32761;BME280;19126;47.472;7.850;2024-03-08T09:39:17;74298.41;;;-146.25;86.80
32761;BME280;19126;47.472;7.850;2024-03-08T09:41:47;74298.41;;;-146.25;85.95
32761;BME280;19126;47.472;7.850;2024-03-08T09:44:16;74270.34;;;-146.25;86.01
32761;BME280;19126;47.472;7.850;2024-03-08T09:46:46;74274.34;;;-146.25;85.65
32761;BME280;19126;47.472;7.850;2024-03-08T09:49:13;74260.31;;;-146.25;85.15
32761;BME280;19126;47.472;7.850;2024-03-08T09:51:41;74266.31;;;-146.25;85.48
32761;BME280;19126;47.472;7.850;2024-03-08T09:54:08;74248.28;;;-146.25;84.86
32761;BME280;19126;47.472;7.850;2024-03-08T09:56:36;74258.31;;;-146.25;83.49
32761;BME280;19126;47.472;7.850;2024-03-08T09:59:04;74248.28;;;-146.25;83.13
32761;BME280;19126;47.472;7.850;2024-03-08T10:01:50;74246.28;;;-146.25;83.39
32761;BME280;19126;47.472;7.850;2024-03-08T10:04:18;74252.28;;;-146.25;84.18
32761;BME280;19126;47.472;7.850;2024-03-08T10:06:45;74244.28;;;-146.25;83.75
32761;BME280;19126;47.472;7.850;2024-03-08T10:09:13;74254.28;;;-146.25;83.30
32761;BME280;19126;47.472;7.850;2024-03-08T10:11:41;74226.22;;;-146.25;83.36
32761;BME280;19126;47.472;7.850;2024-03-08T10:14:09;74188.16;;;-146.25;83.32
32761;BME280;19126;47.472;7.850;2024-03-08T10:16:38;74168.09;;;-146.25;83.56
32761;BME280;19126;47.472;7.850;2024-03-08T10:19:07;74168.09;;;-146.25;82.69
32761;BME280;19126;47.472;7.850;2024-03-08T10:21:35;74178.13;;;-146.25;80.74
32761;BME280;19126;47.472;7.850;2024-03-08T10:24:03;74166.09;;;-146.25;80.66
32761;BME280;19126;47.472;7.850;2024-03-08T10:26:30;74170.09;;;-146.25;79.67
32761;BME280;19126;47.472;7.850;2024-03-08T10:29:05;74154.06;;;-146.25;79.31
32761;BME280;19126;47.472;7.850;2024-03-08T10:31:33;74184.13;;;-146.25;77.98
32761;BME280;19126;47.472;7.850;2024-03-08T10:34:01;74160.09;;;-146.25;78.79
32761;BME280;19126;47.472;7.850;2024-03-08T10:36:30;74124.00;;;-146.25;79.19
32761;BME280;19126;47.472;7.850;2024-03-08T10:39:00;74122.00;;;-146.25;78.47
32761;BME280;19126;47.472;7.850;2024-03-08T10:41:31;74126.00;;;-146.25;77.74
32761;BME280;19126;47.472;7.850;2024-03-08T10:44:14;74130.00;;;-146.25;77.38
32761;BME280;19126;47.472;7.850;2024-03-08T10:47:00;74126.00;;;-146.25;77.67
32761;BME280;19126;47.472;7.850;2024-03-08T10:49:32;74085.91;;;-146.25;78.71
32761;BME280;19126;47.472;7.850;2024-03-08T10:52:04;74069.88;;;-146.25;77.68
32761;BME280;19126;47.472;7.850;2024-03-08T10:54:34;74041.81;;;-146.25;78.25
32761;BME280;19126;47.472;7.850;2024-03-08T10:57:05;74037.81;;;-146.25;77.29
32761;BME280;19126;47.472;7.850;2024-03-08T10:59:34;74045.81;;;-146.25;76.28
32761;BME280;19126;47.472;7.850;2024-03-08T11:02:02;74029.78;;;-146.25;76.60
32761;BME280;19126;47.472;7.850;2024-03-08T11:04:31;74031.78;;;-146.25;76.19
32761;BME280;19126;47.472;7.850;2024-03-08T11:07:02;74007.75;;;-146.25;75.82
32761;BME280;19126;47.472;7.850;2024-03-08T11:09:35;73979.69;;;-146.25;76.89
32761;BME280;19126;47.472;7.850;2024-03-08T11:12:23;73945.59;;;-146.25;75.52
32761;BME280;19126;47.472;7.850;2024-03-08T11:14:53;73925.56;;;-146.25;74.29
32761;BME280;19126;47.472;7.850;2024-03-08T11:17:44;73887.47;;;-146.25;74.24
32761;BME280;19126;47.472;7.850;2024-03-08T11:20:12;73865.44;;;-146.25;73.06
32761;BME280;19126;47.472;7.850;2024-03-08T11:22:49;73829.34;;;-146.25;72.55
32761;BME280;19126;47.472;7.850;2024-03-08T11:25:37;73799.28;;;-146.25;71.12
32761;BME280;19126;47.472;7.850;2024-03-08T11:28:12;73779.25;;;-146.25;70.02
32761;BME280;19126;47.472;7.850;2024-03-08T11:31:21;73751.19;;;-146.25;69.23
32761;BME280;19126;47.472;7.850;2024-03-08T11:33:37;73749.19;;;-146.25;68.33
32761;BME280;19126;47.472;7.850;2024-03-08T11:36:11;73757.19;;;-146.25;67.95
32761;BME280;19126;47.472;7.850;2024-03-08T11:38:44;73773.22;;;-146.25;67.53
32761;BME280;19126;47.472;7.850;2024-03-08T11:41:14;73749.19;;;-146.25;68.40
32761;BME280;19126;47.472;7.850;2024-03-08T11:43:42;73725.13;;;-146.25;68.27
32761;BME280;19126;47.472;7.850;2024-03-08T11:46:10;73709.09;;;-146.25;69.92
32761;BME280;19126;47.472;7.850;2024-03-08T11:48:39;73685.03;;;-146.25;70.06
32761;BME280;19126;47.472;7.850;2024-03-08T11:51:07;73658.97;;;-146.25;68.01
32761;BME280;19126;47.472;7.850;2024-03-08T11:53:35;73663.00;;;-146.25;67.01
32761;BME280;19126;47.472;7.850;2024-03-08T11:56:09;73661.00;;;-146.25;66.65
32761;BME280;19126;47.472;7.850;2024-03-08T11:58:37;73677.03;;;-146.25;66.61
32761;BME280;19126;47.472;7.850;2024-03-08T12:01:05;73667.00;;;-146.25;66.22
32761;BME280;19126;47.472;7.850;2024-03-08T12:03:33;73693.06;;;-146.25;66.91
32761;BME280;19126;47.472;7.850;2024-03-08T12:06:01;73687.03;;;-146.25;67.69
32761;BME280;19126;47.472;7.850;2024-03-08T12:08:31;73650.97;;;-146.25;69.52
32761;BME280;19126;47.472;7.850;2024-03-08T12:10:58;73632.94;;;-146.25;69.13
32761;BME280;19126;47.472;7.850;2024-03-08T12:13:28;73634.94;;;-146.25;67.73
32761;BME280;19126;47.472;7.850;2024-03-08T12:15:57;73616.91;;;-146.25;67.37
32761;BME280;19126;47.472;7.850;2024-03-08T12:18:25;73614.88;;;-146.25;66.45
32761;BME280;19126;47.472;7.850;2024-03-08T12:21:04;73630.94;;;-146.25;66.47
32761;BME280;19126;47.472;7.850;2024-03-08T12:23:33;73642.94;;;-146.25;66.95
32761;BME280;19126;47.472;7.850;2024-03-08T12:26:10;73646.97;;;-146.25;67.82
32761;BME280;19126;47.472;7.850;2024-03-08T12:28:41;73648.97;;;-146.25;68.01
32761;BME280;19126;47.472;7.850;2024-03-08T12:31:12;73652.97;;;-146.25;66.93
32761;BME280;19126;47.472;7.850;2024-03-08T12:33:49;73648.97;;;-146.25;67.18
32761;BME280;19126;47.472;7.850;2024-03-08T12:36:17;73652.97;;;-146.25;67.26
32761;BME280;19126;47.472;7.850;2024-03-08T12:38:46;73648.97;;;-146.25;67.35
32761;BME280;19126;47.472;7.850;2024-03-08T12:41:14;73663.00;;;-146.25;67.38
32761;BME280;19126;47.472;7.850;2024-03-08T12:43:42;73654.97;;;-146.25;68.09
32761;BME280;19126;47.472;7.850;2024-03-08T12:46:14;73632.94;;;-146.25;67.99
32761;BME280;19126;47.472;7.850;2024-03-08T12:48:42;73620.91;;;-146.25;67.74